Résultats événements

01/07/2017 Triathlon de Dijon 2017-Triathlon Minimes




Sortie natation

Arrivée vélo

Arrivée
Categorie:

Clt Temps de course Nom Dos Cat Temps sur l'intervalle Clt int. Gain
1 00:22:59 GUERIN MATHEO 157 MMI 00:07:45 1 0
2 00:23:50 DENIS LEO 166 MMI 00:08:25 2 1
3 00:24:08 DENIZOT CANDICE 156 FMI 00:08:39 7 1
4 00:24:14 ECOIFIER JULES 159 MMI 00:08:27 3 3
5 00:24:35 LANDRE ANTONIN 154 MMI 00:08:37 6 3
6 00:24:37 HUGOT AXEL 173 MMI 00:09:06 12 -1
7 00:24:40 MOTIALOUX KILLIAN 143 MMI 00:09:18 13 -5
8 00:25:12 FAIVRE CHARLOTTE 178 FMI 00:09:37 23 -2
9 00:25:24 PIQUET GABRIEL 126 MMI 00:08:41 8 0
10 00:25:33 CHAPET AUGUSTIN 138 MMI 00:08:35 5 1
11 00:25:47 FAVIER MATHIAS 146 MMI 00:08:35 4 4
12 00:25:47 FICHAUX BAPTISTE 170 MMI 00:09:01 10 -2
13 00:26:21 GOUJON NATHAN 135 MMI 00:09:02 11 3
14 00:26:33 SARADIN CLEMENT 152 MMI 00:09:34 21 -2
15 00:27:02 JEANSON OSCAR 167 MMI 00:09:21 14 2
16 00:27:09 THUILLIER MARIE 171 FMI 00:10:01 27 -2
17 00:27:12 DEMORTIERE ALEXIS 160 MMI 00:09:26 17 1
18 00:27:17 DELANCE COLIN 162 MMI 00:09:30 19 1
19 00:27:19 PRIEST FLAVIEN 137 MMI 00:09:25 16 1
20 00:27:33 JEANSON JULES 129 MMI 00:09:23 15 3
21 00:28:01 GAUTHERON LAURYNE 148 FMI 00:09:37 22 5
22 00:28:13 TRIMBUR LEO 158 MMI 00:09:58 26 2
23 00:28:13 BROCARD JULIAN 155 MMI 00:11:10 40 -10
24 00:28:13 FOURRIER BASTIEN 123 MMI 00:10:05 28 -2
25 00:28:30 CORDELETTE ELIAN 121 MMI 00:10:22 31 -4
26 00:28:30 RICHARD TANGUY 175 MMI 00:09:57 25 1
27 00:28:32 DEFRANCE LOUISE 140 FMI 00:08:51 9 15
28 00:28:51 FEBVRE PRUNE 122 FMI 00:10:29 33 -3
29 00:28:56 GAUTHEY ETIENNE 134 MMI 00:09:27 18 9
30 00:29:11 PERIER JULES 165 MMI 00:09:34 20 10
31 00:29:21 ALVES LUDIVINE 132 FMI 00:10:08 29 4
32 00:29:24 NAUDIN ALIX 151 MMI 00:10:34 34 -2
33 00:29:29 MASSARD ENZO 136 MMI 00:10:38 35 -2
34 00:29:34 JOUREAU ELIAS 163 MMI 00:09:54 24 7
35 00:29:40 LOUVRIER HENRY 176 MMI 00:10:26 32 1
36 00:29:43 BAROUX TRISTAN 168 MMI 00:11:01 37 -7
37 00:29:47 RAMOISSENET THEO 172 MMI 00:10:47 36 -4
38 00:30:03 LOISY VICTOR 149 MMI 00:11:08 39 -6
39 00:30:11 SIRIEIX LOUIS 127 MMI 00:10:09 30 4
40 00:30:50 CHAMPY MAYA 139 FMI 00:11:31 42 -3
41 00:31:58 MULLER KILLIAN 150 MMI 00:12:49 47 -7
42 00:32:34 AUVITU OSCAR 145 MMI 00:12:59 48 -3
43 00:33:05 ALIXANT BENJAMIN 130 MMI 00:11:11 41 3
44 00:33:21 LAVENU NOAH 131 MMI 00:14:39 51 -16
45 00:33:48 FORCE EMMA 147 FMI 00:11:43 44 2
46 00:34:35 MARIE MATEO 164 MMI 00:13:11 49 -1
47 00:34:40 DION MAXENCE 142 MMI 00:13:38 50 -3
48 00:34:58 GHESQUIERE TOM 161 MMI 00:12:42 46 0
49 00:35:01 BOZET BASTIEN 153 MMI 00:11:05 38 1
50 00:36:17 OULBAGHDADI ADAM 177 MMI 00:12:34 45 -1
51 00:38:05 FURET JULIEN 174 MMI 00:11:38 43 0


Restez connectés à vos performances